sensor_id;sensor_type;location;lat;lon;timestamp;P1;durP1;ratioP1;P2;durP2;ratioP2
27728;SDS011;15126;42.186;24.340;2023-02-15T00:01:40;28.30;;;23.47;;
27728;SDS011;15126;42.186;24.340;2023-02-15T00:04:09;27.30;;;23.43;;
27728;SDS011;15126;42.186;24.340;2023-02-15T00:06:39;32.40;;;24.77;;
27728;SDS011;15126;42.186;24.340;2023-02-15T00:09:06;26.23;;;22.83;;
27728;SDS011;15126;42.186;24.340;2023-02-15T00:11:34;30.17;;;24.03;;
27728;SDS011;15126;42.186;24.340;2023-02-15T00:14:09;29.13;;;23.87;;
27728;SDS011;15126;42.186;24.340;2023-02-15T00:16:37;28.20;;;23.67;;
27728;SDS011;15126;42.186;24.340;2023-02-15T00:19:05;28.20;;;24.83;;
27728;SDS011;15126;42.186;24.340;2023-02-15T00:21:34;30.20;;;25.03;;
27728;SDS011;15126;42.186;24.340;2023-02-15T00:24:02;29.23;;;25.50;;
27728;SDS011;15126;42.186;24.340;2023-02-15T00:26:30;27.57;;;24.67;;
27728;SDS011;15126;42.186;24.340;2023-02-15T00:28:58;32.53;;;25.93;;
27728;SDS011;15126;42.186;24.340;2023-02-15T00:31:25;31.13;;;26.50;;
27728;SDS011;15126;42.186;24.340;2023-02-15T00:33:53;33.17;;;27.20;;
27728;SDS011;15126;42.186;24.340;2023-02-15T00:36:20;34.43;;;27.53;;
27728;SDS011;15126;42.186;24.340;2023-02-15T00:38:48;37.90;;;28.73;;
27728;SDS011;15126;42.186;24.340;2023-02-15T00:41:15;35.47;;;28.13;;
27728;SDS011;15126;42.186;24.340;2023-02-15T00:43:41;36.73;;;28.30;;
27728;SDS011;15126;42.186;24.340;2023-02-15T00:46:08;39.60;;;29.43;;
27728;SDS011;15126;42.186;24.340;2023-02-15T00:48:35;38.17;;;31.77;;
27728;SDS011;15126;42.186;24.340;2023-02-15T00:51:02;35.17;;;29.87;;
27728;SDS011;15126;42.186;24.340;2023-02-15T00:53:29;36.00;;;30.67;;
27728;SDS011;15126;42.186;24.340;2023-02-15T00:55:57;41.73;;;31.43;;
27728;SDS011;15126;42.186;24.340;2023-02-15T00:58:24;40.73;;;30.07;;
27728;SDS011;15126;42.186;24.340;2023-02-15T01:00:51;39.13;;;30.30;;
27728;SDS011;15126;42.186;24.340;2023-02-15T01:03:19;38.50;;;31.93;;
27728;SDS011;15126;42.186;24.340;2023-02-15T01:05:47;42.23;;;31.80;;
27728;SDS011;15126;42.186;24.340;2023-02-15T01:08:15;35.73;;;29.93;;
27728;SDS011;15126;42.186;24.340;2023-02-15T01:10:42;39.23;;;32.13;;
27728;SDS011;15126;42.186;24.340;2023-02-15T01:13:14;41.73;;;32.17;;
27728;SDS011;15126;42.186;24.340;2023-02-15T01:15:41;37.77;;;31.03;;
27728;SDS011;15126;42.186;24.340;2023-02-15T01:18:08;40.30;;;33.30;;
27728;SDS011;15126;42.186;24.340;2023-02-15T01:20:36;38.40;;;32.60;;
27728;SDS011;15126;42.186;24.340;2023-02-15T01:23:06;41.60;;;31.90;;
27728;SDS011;15126;42.186;24.340;2023-02-15T01:25:33;38.23;;;31.67;;
27728;SDS011;15126;42.186;24.340;2023-02-15T01:28:01;38.53;;;30.87;;
27728;SDS011;15126;42.186;24.340;2023-02-15T01:30:30;37.57;;;31.10;;
27728;SDS011;15126;42.186;24.340;2023-02-15T01:32:57;35.17;;;31.30;;
27728;SDS011;15126;42.186;24.340;2023-02-15T01:35:25;37.40;;;30.63;;
27728;SDS011;15126;42.186;24.340;2023-02-15T01:37:52;45.30;;;32.07;;
27728;SDS011;15126;42.186;24.340;2023-02-15T01:40:20;40.20;;;31.60;;
27728;SDS011;15126;42.186;24.340;2023-02-15T01:42:49;38.37;;;33.33;;
27728;SDS011;15126;42.186;24.340;2023-02-15T01:45:18;40.50;;;34.60;;
27728;SDS011;15126;42.186;24.340;2023-02-15T01:47:49;46.30;;;35.40;;
27728;SDS011;15126;42.186;24.340;2023-02-15T01:50:21;43.60;;;35.00;;
27728;SDS011;15126;42.186;24.340;2023-02-15T01:52:53;44.77;;;34.67;;
27728;SDS011;15126;42.186;24.340;2023-02-15T01:55:24;40.43;;;33.83;;
27728;SDS011;15126;42.186;24.340;2023-02-15T01:57:52;41.77;;;34.10;;
27728;SDS011;15126;42.186;24.340;2023-02-15T02:00:19;42.93;;;33.27;;
27728;SDS011;15126;42.186;24.340;2023-02-15T02:02:47;42.07;;;33.53;;
27728;SDS011;15126;42.186;24.340;2023-02-15T02:05:19;43.83;;;33.50;;
27728;SDS011;15126;42.186;24.340;2023-02-15T02:07:47;39.60;;;31.73;;
27728;SDS011;15126;42.186;24.340;2023-02-15T02:10:18;38.00;;;31.83;;
27728;SDS011;15126;42.186;24.340;2023-02-15T02:12:47;43.60;;;33.63;;
27728;SDS011;15126;42.186;24.340;2023-02-15T02:15:17;44.73;;;35.87;;
27728;SDS011;15126;42.186;24.340;2023-02-15T02:17:47;41.47;;;32.57;;
27728;SDS011;15126;42.186;24.340;2023-02-15T02:20:31;40.23;;;31.80;;
27728;SDS011;15126;42.186;24.340;2023-02-15T02:26:22;46.30;;;33.43;;
27728;SDS011;15126;42.186;24.340;2023-02-15T02:29:33;48.63;;;37.27;;
27728;SDS011;15126;42.186;24.340;2023-02-15T02:32:32;45.73;;;36.17;;
27728;SDS011;15126;42.186;24.340;2023-02-15T02:35:17;48.33;;;35.77;;
27728;SDS011;15126;42.186;24.340;2023-02-15T02:37:51;39.53;;;32.33;;
27728;SDS011;15126;42.186;24.340;2023-02-15T02:40:30;43.63;;;34.80;;
27728;SDS011;15126;42.186;24.340;2023-02-15T02:43:04;42.57;;;31.37;;
27728;SDS011;15126;42.186;24.340;2023-02-15T02:45:39;39.23;;;31.00;;
27728;SDS011;15126;42.186;24.340;2023-02-15T02:48:10;35.07;;;29.87;;
27728;SDS011;15126;42.186;24.340;2023-02-15T02:50:42;41.60;;;31.70;;
27728;SDS011;15126;42.186;24.340;2023-02-15T02:53:09;38.33;;;32.43;;
27728;SDS011;15126;42.186;24.340;2023-02-15T02:55:37;40.00;;;30.67;;
27728;SDS011;15126;42.186;24.340;2023-02-15T02:58:14;40.70;;;31.07;;
27728;SDS011;15126;42.186;24.340;2023-02-15T03:00:48;37.97;;;30.17;;
27728;SDS011;15126;42.186;24.340;2023-02-15T03:03:20;34.83;;;29.33;;
27728;SDS011;15126;42.186;24.340;2023-02-15T03:05:54;35.17;;;28.10;;
27728;SDS011;15126;42.186;24.340;2023-02-15T03:08:26;45.50;;;31.07;;
27728;SDS011;15126;42.186;24.340;2023-02-15T03:10:59;47.90;;;33.30;;
27728;SDS011;15126;42.186;24.340;2023-02-15T03:13:27;60.97;;;38.90;;
27728;SDS011;15126;42.186;24.340;2023-02-15T03:15:54;54.57;;;37.00;;
27728;SDS011;15126;42.186;24.340;2023-02-15T03:18:42;48.83;;;33.50;;
27728;SDS011;15126;42.186;24.340;2023-02-15T03:21:19;71.23;;;48.87;;
27728;SDS011;15126;42.186;24.340;2023-02-15T03:23:49;45.63;;;32.53;;
27728;SDS011;15126;42.186;24.340;2023-02-15T03:26:19;46.80;;;33.67;;
27728;SDS011;15126;42.186;24.340;2023-02-15T03:28:49;59.07;;;37.80;;
27728;SDS011;15126;42.186;24.340;2023-02-15T03:31:19;44.23;;;33.93;;
27728;SDS011;15126;42.186;24.340;2023-02-15T03:33:52;45.43;;;32.30;;
27728;SDS011;15126;42.186;24.340;2023-02-15T03:36:24;54.37;;;36.40;;
27728;SDS011;15126;42.186;24.340;2023-02-15T03:38:58;44.90;;;32.27;;
27728;SDS011;15126;42.186;24.340;2023-02-15T03:41:32;47.77;;;34.43;;
27728;SDS011;15126;42.186;24.340;2023-02-15T03:44:04;50.60;;;35.57;;
27728;SDS011;15126;42.186;24.340;2023-02-15T03:46:39;45.57;;;32.33;;
27728;SDS011;15126;42.186;24.340;2023-02-15T03:49:10;46.17;;;32.93;;
27728;SDS011;15126;42.186;24.340;2023-02-15T03:51:43;43.23;;;32.17;;
27728;SDS011;15126;42.186;24.340;2023-02-15T03:54:15;38.07;;;30.00;;
27728;SDS011;15126;42.186;24.340;2023-02-15T03:57:00;38.47;;;28.03;;
27728;SDS011;15126;42.186;24.340;2023-02-15T03:59:41;36.97;;;27.80;;
27728;SDS011;15126;42.186;24.340;2023-02-15T04:02:26;36.00;;;29.33;;
27728;SDS011;15126;42.186;24.340;2023-02-15T04:05:02;38.37;;;30.63;;
27728;SDS011;15126;42.186;24.340;2023-02-15T04:07:30;41.33;;;33.40;;
27728;SDS011;15126;42.186;24.340;2023-02-15T04:09:57;38.57;;;30.23;;
27728;SDS011;15126;42.186;24.340;2023-02-15T04:12:41;40.90;;;30.57;;
27728;SDS011;15126;42.186;24.340;2023-02-15T04:15:08;41.83;;;32.67;;
27728;SDS011;15126;42.186;24.340;2023-02-15T04:17:56;44.70;;;31.27;;
27728;SDS011;15126;42.186;24.340;2023-02-15T04:20:23;36.00;;;30.43;;
27728;SDS011;15126;42.186;24.340;2023-02-15T04:23:08;39.57;;;32.13;;
27728;SDS011;15126;42.186;24.340;2023-02-15T04:25:53;36.07;;;30.57;;
27728;SDS011;15126;42.186;24.340;2023-02-15T04:28:20;40.27;;;31.63;;
27728;SDS011;15126;42.186;24.340;2023-02-15T04:30:47;37.97;;;30.50;;
27728;SDS011;15126;42.186;24.340;2023-02-15T04:33:13;37.37;;;30.77;;
27728;SDS011;15126;42.186;24.340;2023-02-15T04:35:40;37.53;;;29.17;;
27728;SDS011;15126;42.186;24.340;2023-02-15T04:38:11;37.60;;;30.53;;
27728;SDS011;15126;42.186;24.340;2023-02-15T04:40:38;38.07;;;30.80;;
27728;SDS011;15126;42.186;24.340;2023-02-15T04:43:05;33.70;;;28.30;;
27728;SDS011;15126;42.186;24.340;2023-02-15T04:45:31;39.20;;;30.00;;
27728;SDS011;15126;42.186;24.340;2023-02-15T04:47:58;37.43;;;30.43;;
27728;SDS011;15126;42.186;24.340;2023-02-15T04:50:25;39.87;;;30.03;;
27728;SDS011;15126;42.186;24.340;2023-02-15T04:52:52;38.97;;;31.00;;
27728;SDS011;15126;42.186;24.340;2023-02-15T04:55:20;46.83;;;33.27;;
27728;SDS011;15126;42.186;24.340;2023-02-15T04:57:47;52.67;;;36.37;;
27728;SDS011;15126;42.186;24.340;2023-02-15T05:00:14;51.40;;;33.60;;
27728;SDS011;15126;42.186;24.340;2023-02-15T05:02:41;49.50;;;34.27;;
27728;SDS011;15126;42.186;24.340;2023-02-15T05:05:08;51.93;;;36.03;;
27728;SDS011;15126;42.186;24.340;2023-02-15T05:07:38;42.43;;;32.63;;
27728;SDS011;15126;42.186;24.340;2023-02-15T05:10:05;44.90;;;31.70;;
27728;SDS011;15126;42.186;24.340;2023-02-15T05:12:34;39.70;;;30.40;;
27728;SDS011;15126;42.186;24.340;2023-02-15T05:15:01;39.60;;;31.57;;
27728;SDS011;15126;42.186;24.340;2023-02-15T05:17:27;42.50;;;32.30;;
27728;SDS011;15126;42.186;24.340;2023-02-15T05:19:54;44.17;;;34.00;;
27728;SDS011;15126;42.186;24.340;2023-02-15T05:22:21;40.43;;;31.60;;
27728;SDS011;15126;42.186;24.340;2023-02-15T05:24:48;53.70;;;36.03;;
27728;SDS011;15126;42.186;24.340;2023-02-15T05:27:33;42.97;;;30.03;;
27728;SDS011;15126;42.186;24.340;2023-02-15T05:30:18;44.63;;;32.60;;
27728;SDS011;15126;42.186;24.340;2023-02-15T05:32:45;45.70;;;31.40;;
27728;SDS011;15126;42.186;24.340;2023-02-15T05:35:12;44.50;;;33.43;;
27728;SDS011;15126;42.186;24.340;2023-02-15T05:37:40;45.83;;;33.10;;
27728;SDS011;15126;42.186;24.340;2023-02-15T05:40:07;43.13;;;33.60;;
27728;SDS011;15126;42.186;24.340;2023-02-15T05:42:36;40.27;;;31.97;;
27728;SDS011;15126;42.186;24.340;2023-02-15T05:45:03;40.07;;;34.70;;
27728;SDS011;15126;42.186;24.340;2023-02-15T05:47:30;43.67;;;32.50;;
27728;SDS011;15126;42.186;24.340;2023-02-15T05:49:57;39.17;;;30.33;;
27728;SDS011;15126;42.186;24.340;2023-02-15T05:52:24;37.53;;;29.30;;
27728;SDS011;15126;42.186;24.340;2023-02-15T05:54:51;37.90;;;31.27;;
27728;SDS011;15126;42.186;24.340;2023-02-15T05:57:18;40.03;;;32.03;;
27728;SDS011;15126;42.186;24.340;2023-02-15T05:59:46;39.57;;;29.47;;
27728;SDS011;15126;42.186;24.340;2023-02-15T06:02:13;40.93;;;31.37;;
27728;SDS011;15126;42.186;24.340;2023-02-15T06:04:39;34.63;;;28.67;;
27728;SDS011;15126;42.186;24.340;2023-02-15T06:07:06;45.17;;;30.10;;
27728;SDS011;15126;42.186;24.340;2023-02-15T06:09:33;39.87;;;29.20;;
27728;SDS011;15126;42.186;24.340;2023-02-15T06:12:00;37.30;;;30.83;;
27728;SDS011;15126;42.186;24.340;2023-02-15T06:14:29;43.43;;;30.33;;
27728;SDS011;15126;42.186;24.340;2023-02-15T06:16:57;41.23;;;31.87;;
27728;SDS011;15126;42.186;24.340;2023-02-15T06:19:24;40.50;;;30.70;;
27728;SDS011;15126;42.186;24.340;2023-02-15T06:21:51;37.37;;;29.23;;
27728;SDS011;15126;42.186;24.340;2023-02-15T06:24:17;39.03;;;31.93;;
27728;SDS011;15126;42.186;24.340;2023-02-15T06:26:44;37.83;;;29.60;;
27728;SDS011;15126;42.186;24.340;2023-02-15T06:29:11;38.90;;;31.17;;
27728;SDS011;15126;42.186;24.340;2023-02-15T06:31:38;32.87;;;28.63;;
27728;SDS011;15126;42.186;24.340;2023-02-15T06:34:06;42.73;;;32.07;;
27728;SDS011;15126;42.186;24.340;2023-02-15T06:36:33;39.63;;;31.97;;
27728;SDS011;15126;42.186;24.340;2023-02-15T06:39:00;48.60;;;36.13;;
27728;SDS011;15126;42.186;24.340;2023-02-15T06:41:27;47.37;;;34.80;;
27728;SDS011;15126;42.186;24.340;2023-02-15T06:43:54;44.00;;;32.23;;
27728;SDS011;15126;42.186;24.340;2023-02-15T06:46:24;37.70;;;30.53;;
27728;SDS011;15126;42.186;24.340;2023-02-15T06:48:51;41.87;;;33.63;;
27728;SDS011;15126;42.186;24.340;2023-02-15T06:51:23;45.03;;;33.90;;
27728;SDS011;15126;42.186;24.340;2023-02-15T06:53:49;51.60;;;37.53;;
27728;SDS011;15126;42.186;24.340;2023-02-15T06:56:16;41.93;;;31.90;;
27728;SDS011;15126;42.186;24.340;2023-02-15T06:58:43;36.80;;;30.43;;
27728;SDS011;15126;42.186;24.340;2023-02-15T07:01:11;39.53;;;32.77;;
27728;SDS011;15126;42.186;24.340;2023-02-15T07:03:38;43.43;;;34.00;;
27728;SDS011;15126;42.186;24.340;2023-02-15T07:06:05;37.07;;;32.07;;
27728;SDS011;15126;42.186;24.340;2023-02-15T07:08:35;40.43;;;32.63;;
27728;SDS011;15126;42.186;24.340;2023-02-15T07:11:02;39.27;;;33.10;;
27728;SDS011;15126;42.186;24.340;2023-02-15T07:13:43;39.13;;;32.40;;
27728;SDS011;15126;42.186;24.340;2023-02-15T07:16:10;44.30;;;32.50;;
27728;SDS011;15126;42.186;24.340;2023-02-15T07:18:37;38.23;;;31.90;;
27728;SDS011;15126;42.186;24.340;2023-02-15T07:21:05;37.17;;;30.93;;
27728;SDS011;15126;42.186;24.340;2023-02-15T07:23:35;87.07;;;60.67;;
27728;SDS011;15126;42.186;24.340;2023-02-15T07:26:03;46.87;;;39.50;;
27728;SDS011;15126;42.186;24.340;2023-02-15T07:28:31;37.20;;;32.00;;
27728;SDS011;15126;42.186;24.340;2023-02-15T07:31:00;36.63;;;30.50;;
27728;SDS011;15126;42.186;24.340;2023-02-15T07:33:27;41.03;;;30.00;;
27728;SDS011;15126;42.186;24.340;2023-02-15T07:35:56;45.47;;;38.00;;
27728;SDS011;15126;42.186;24.340;2023-02-15T07:38:26;30.70;;;26.67;;
27728;SDS011;15126;42.186;24.340;2023-02-15T07:40:58;28.43;;;24.47;;
27728;SDS011;15126;42.186;24.340;2023-02-15T07:43:25;29.33;;;26.43;;
27728;SDS011;15126;42.186;24.340;2023-02-15T07:45:53;27.47;;;24.37;;
27728;SDS011;15126;42.186;24.340;2023-02-15T07:48:20;35.87;;;27.73;;
27728;SDS011;15126;42.186;24.340;2023-02-15T07:50:47;30.50;;;25.13;;
27728;SDS011;15126;42.186;24.340;2023-02-15T07:53:19;32.50;;;24.53;;
27728;SDS011;15126;42.186;24.340;2023-02-15T07:55:46;25.43;;;22.83;;
27728;SDS011;15126;42.186;24.340;2023-02-15T07:58:14;30.43;;;24.33;;
27728;SDS011;15126;42.186;24.340;2023-02-15T08:00:41;30.53;;;25.73;;
27728;SDS011;15126;42.186;24.340;2023-02-15T08:03:24;29.47;;;24.80;;
27728;SDS011;15126;42.186;24.340;2023-02-15T08:05:55;28.07;;;22.87;;
27728;SDS011;15126;42.186;24.340;2023-02-15T08:08:23;28.70;;;25.53;;
27728;SDS011;15126;42.186;24.340;2023-02-15T08:11:00;27.73;;;23.50;;
27728;SDS011;15126;42.186;24.340;2023-02-15T08:13:47;29.93;;;24.77;;
27728;SDS011;15126;42.186;24.340;2023-02-15T08:16:23;28.73;;;24.40;;
27728;SDS011;15126;42.186;24.340;2023-02-15T08:18:50;83.97;;;62.53;;
27728;SDS011;15126;42.186;24.340;2023-02-15T08:21:18;23.63;;;21.17;;
27728;SDS011;15126;42.186;24.340;2023-02-15T08:23:45;26.77;;;23.63;;
27728;SDS011;15126;42.186;24.340;2023-02-15T08:26:12;27.10;;;23.53;;
27728;SDS011;15126;42.186;24.340;2023-02-15T08:28:40;25.50;;;22.87;;
27728;SDS011;15126;42.186;24.340;2023-02-15T08:31:09;35.07;;;27.13;;
27728;SDS011;15126;42.186;24.340;2023-02-15T08:33:38;28.13;;;25.00;;
27728;SDS011;15126;42.186;24.340;2023-02-15T08:36:07;70.27;;;54.13;;
27728;SDS011;15126;42.186;24.340;2023-02-15T08:38:36;25.63;;;22.30;;
27728;SDS011;15126;42.186;24.340;2023-02-15T08:41:10;40.33;;;34.17;;
27728;SDS011;15126;42.186;24.340;2023-02-15T08:43:38;31.17;;;26.70;;
27728;SDS011;15126;42.186;24.340;2023-02-15T08:46:05;28.07;;;24.10;;
27728;SDS011;15126;42.186;24.340;2023-02-15T08:48:34;25.70;;;23.03;;
27728;SDS011;15126;42.186;24.340;2023-02-15T08:51:08;26.57;;;23.77;;
27728;SDS011;15126;42.186;24.340;2023-02-15T08:53:37;28.37;;;25.33;;
27728;SDS011;15126;42.186;24.340;2023-02-15T08:56:05;42.27;;;35.13;;
27728;SDS011;15126;42.186;24.340;2023-02-15T08:58:32;26.83;;;23.60;;
27728;SDS011;15126;42.186;24.340;2023-02-15T09:01:01;28.77;;;24.10;;
27728;SDS011;15126;42.186;24.340;2023-02-15T09:03:36;42.77;;;35.43;;
27728;SDS011;15126;42.186;24.340;2023-02-15T09:06:03;23.57;;;18.53;;
27728;SDS011;15126;42.186;24.340;2023-02-15T09:08:30;24.23;;;18.70;;
27728;SDS011;15126;42.186;24.340;2023-02-15T09:11:04;22.80;;;20.37;;
27728;SDS011;15126;42.186;24.340;2023-02-15T09:13:32;20.63;;;18.53;;
27728;SDS011;15126;42.186;24.340;2023-02-15T09:16:00;21.93;;;19.63;;
27728;SDS011;15126;42.186;24.340;2023-02-15T09:18:27;23.23;;;20.57;;
27728;SDS011;15126;42.186;24.340;2023-02-15T09:20:56;20.30;;;17.97;;
27728;SDS011;15126;42.186;24.340;2023-02-15T09:23:23;20.03;;;17.93;;
27728;SDS011;15126;42.186;24.340;2023-02-15T09:25:50;19.67;;;17.70;;
27728;SDS011;15126;42.186;24.340;2023-02-15T09:28:17;22.93;;;20.43;;
27728;SDS011;15126;42.186;24.340;2023-02-15T09:30:44;21.67;;;19.43;;
27728;SDS011;15126;42.186;24.340;2023-02-15T09:33:10;20.93;;;18.70;;
27728;SDS011;15126;42.186;24.340;2023-02-15T09:35:37;21.77;;;19.53;;
27728;SDS011;15126;42.186;24.340;2023-02-15T09:38:06;19.10;;;17.13;;
27728;SDS011;15126;42.186;24.340;2023-02-15T09:40:33;20.33;;;18.13;;
27728;SDS011;15126;42.186;24.340;2023-02-15T09:43:22;20.03;;;18.17;;
27728;SDS011;15126;42.186;24.340;2023-02-15T09:46:02;21.47;;;19.20;;
27728;SDS011;15126;42.186;24.340;2023-02-15T09:48:39;18.70;;;16.73;;
27728;SDS011;15126;42.186;24.340;2023-02-15T09:51:12;20.90;;;18.70;;
27728;SDS011;15126;42.186;24.340;2023-02-15T09:54:08;20.50;;;17.97;;
27728;SDS011;15126;42.186;24.340;2023-02-15T09:56:46;20.27;;;18.17;;
27728;SDS011;15126;42.186;24.340;2023-02-15T09:59:18;20.63;;;18.63;;
27728;SDS011;15126;42.186;24.340;2023-02-15T10:01:55;21.43;;;19.23;;
27728;SDS011;15126;42.186;24.340;2023-02-15T10:04:33;23.07;;;20.57;;
27728;SDS011;15126;42.186;24.340;2023-02-15T10:07:09;27.17;;;23.37;;
27728;SDS011;15126;42.186;24.340;2023-02-15T10:09:53;23.40;;;20.20;;
27728;SDS011;15126;42.186;24.340;2023-02-15T10:12:36;55.80;;;44.27;;
27728;SDS011;15126;42.186;24.340;2023-02-15T10:15:23;20.13;;;18.03;;
27728;SDS011;15126;42.186;24.340;2023-02-15T10:18:04;20.60;;;18.50;;
27728;SDS011;15126;42.186;24.340;2023-02-15T10:20:43;27.60;;;22.13;;
27728;SDS011;15126;42.186;24.340;2023-02-15T10:23:41;24.63;;;22.00;;
27728;SDS011;15126;42.186;24.340;2023-02-15T10:26:46;25.30;;;21.63;;
27728;SDS011;15126;42.186;24.340;2023-02-15T10:29:16;21.43;;;19.23;;
27728;SDS011;15126;42.186;24.340;2023-02-15T10:31:54;20.07;;;18.07;;
27728;SDS011;15126;42.186;24.340;2023-02-15T10:34:30;19.83;;;17.87;;
27728;SDS011;15126;42.186;24.340;2023-02-15T10:40:07;23.37;;;20.63;;
27728;SDS011;15126;42.186;24.340;2023-02-15T10:42:44;21.00;;;17.77;;
27728;SDS011;15126;42.186;24.340;2023-02-15T10:45:23;23.33;;;20.30;;
27728;SDS011;15126;42.186;24.340;2023-02-15T10:48:04;20.10;;;17.93;;
27728;SDS011;15126;42.186;24.340;2023-02-15T10:50:46;19.03;;;16.23;;
27728;SDS011;15126;42.186;24.340;2023-02-15T10:53:23;20.93;;;18.73;;
27728;SDS011;15126;42.186;24.340;2023-02-15T10:56:03;18.23;;;16.43;;
27728;SDS011;15126;42.186;24.340;2023-02-15T10:58:42;21.50;;;19.30;;
27728;SDS011;15126;42.186;24.340;2023-02-15T11:01:23;18.87;;;16.97;;
27728;SDS011;15126;42.186;24.340;2023-02-15T11:07:08;17.20;;;15.50;;
27728;SDS011;15126;42.186;24.340;2023-02-15T11:09:46;28.33;;;25.40;;
27728;SDS011;15126;42.186;24.340;2023-02-15T11:12:17;20.50;;;17.47;;
27728;SDS011;15126;42.186;24.340;2023-02-15T11:14:50;17.53;;;15.73;;
27728;SDS011;15126;42.186;24.340;2023-02-15T11:17:22;16.93;;;14.77;;
27728;SDS011;15126;42.186;24.340;2023-02-15T11:19:58;20.50;;;16.27;;
27728;SDS011;15126;42.186;24.340;2023-02-15T11:22:30;20.97;;;15.97;;
27728;SDS011;15126;42.186;24.340;2023-02-15T11:24:59;19.67;;;17.00;;
27728;SDS011;15126;42.186;24.340;2023-02-15T11:27:29;21.23;;;17.70;;
27728;SDS011;15126;42.186;24.340;2023-02-15T11:30:00;19.60;;;16.60;;
27728;SDS011;15126;42.186;24.340;2023-02-15T11:32:31;19.27;;;17.27;;
27728;SDS011;15126;42.186;24.340;2023-02-15T11:35:01;21.23;;;18.03;;
27728;SDS011;15126;42.186;24.340;2023-02-15T11:37:38;17.83;;;16.03;;
27728;SDS011;15126;42.186;24.340;2023-02-15T11:40:15;18.40;;;16.50;;
27728;SDS011;15126;42.186;24.340;2023-02-15T11:42:47;19.47;;;17.47;;
27728;SDS011;15126;42.186;24.340;2023-02-15T11:45:27;18.00;;;16.20;;
27728;SDS011;15126;42.186;24.340;2023-02-15T11:47:56;20.03;;;18.13;;
27728;SDS011;15126;42.186;24.340;2023-02-15T11:50:25;17.83;;;15.77;;
27728;SDS011;15126;42.186;24.340;2023-02-15T11:52:56;17.93;;;16.13;;
27728;SDS011;15126;42.186;24.340;2023-02-15T11:55:26;16.77;;;15.17;;
27728;SDS011;15126;42.186;24.340;2023-02-15T11:57:55;19.10;;;16.33;;
27728;SDS011;15126;42.186;24.340;2023-02-15T12:00:32;19.07;;;17.13;;
27728;SDS011;15126;42.186;24.340;2023-02-15T12:03:09;18.00;;;16.17;;
27728;SDS011;15126;42.186;24.340;2023-02-15T12:05:43;16.27;;;14.57;;
27728;SDS011;15126;42.186;24.340;2023-02-15T12:08:17;18.60;;;15.40;;
27728;SDS011;15126;42.186;24.340;2023-02-15T12:13:37;18.27;;;16.33;;
27728;SDS011;15126;42.186;24.340;2023-02-15T12:16:21;18.63;;;16.70;;
27728;SDS011;15126;42.186;24.340;2023-02-15T12:18:49;40.33;;;36.30;;
27728;SDS011;15126;42.186;24.340;2023-02-15T12:21:23;25.20;;;22.67;;
27728;SDS011;15126;42.186;24.340;2023-02-15T12:23:53;24.13;;;21.53;;
27728;SDS011;15126;42.186;24.340;2023-02-15T12:26:26;19.10;;;16.20;;
27728;SDS011;15126;42.186;24.340;2023-02-15T12:28:54;16.63;;;15.00;;
27728;SDS011;15126;42.186;24.340;2023-02-15T12:31:30;17.50;;;15.90;;
27728;SDS011;15126;42.186;24.340;2023-02-15T12:34:01;16.27;;;14.67;;
27728;SDS011;15126;42.186;24.340;2023-02-15T12:36:40;18.00;;;15.53;;
27728;SDS011;15126;42.186;24.340;2023-02-15T12:39:21;17.50;;;15.70;;
27728;SDS011;15126;42.186;24.340;2023-02-15T12:42:01;16.93;;;15.03;;
27728;SDS011;15126;42.186;24.340;2023-02-15T12:44:31;17.80;;;16.07;;
27728;SDS011;15126;42.186;24.340;2023-02-15T12:47:01;21.67;;;19.37;;
27728;SDS011;15126;42.186;24.340;2023-02-15T12:49:30;19.57;;;17.67;;
27728;SDS011;15126;42.186;24.340;2023-02-15T12:51:58;17.43;;;15.70;;
27728;SDS011;15126;42.186;24.340;2023-02-15T12:54:34;25.33;;;17.80;;
27728;SDS011;15126;42.186;24.340;2023-02-15T12:59:56;15.83;;;14.30;;
27728;SDS011;15126;42.186;24.340;2023-02-15T13:02:27;17.10;;;15.37;;
27728;SDS011;15126;42.186;24.340;2023-02-15T13:04:57;17.77;;;15.97;;
27728;SDS011;15126;42.186;24.340;2023-02-15T13:07:34;16.67;;;15.07;;
27728;SDS011;15126;42.186;24.340;2023-02-15T13:10:00;15.70;;;14.10;;
27728;SDS011;15126;42.186;24.340;2023-02-15T13:12:30;15.40;;;13.93;;
27728;SDS011;15126;42.186;24.340;2023-02-15T13:14:58;16.73;;;15.13;;
27728;SDS011;15126;42.186;24.340;2023-02-15T13:17:29;21.00;;;15.10;;
27728;SDS011;15126;42.186;24.340;2023-02-15T13:20:00;16.23;;;14.53;;
27728;SDS011;15126;42.186;24.340;2023-02-15T13:22:36;15.67;;;14.13;;
27728;SDS011;15126;42.186;24.340;2023-02-15T13:25:10;19.87;;;17.60;;
27728;SDS011;15126;42.186;24.340;2023-02-15T13:27:41;16.23;;;14.53;;
27728;SDS011;15126;42.186;24.340;2023-02-15T13:30:23;15.87;;;12.97;;
27728;SDS011;15126;42.186;24.340;2023-02-15T13:32:55;17.77;;;15.80;;
27728;SDS011;15126;42.186;24.340;2023-02-15T13:35:25;15.43;;;13.90;;
27728;SDS011;15126;42.186;24.340;2023-02-15T13:38:11;16.10;;;14.07;;
27728;SDS011;15126;42.186;24.340;2023-02-15T13:41:03;20.00;;;17.17;;
27728;SDS011;15126;42.186;24.340;2023-02-15T13:47:17;16.43;;;14.20;;
27728;SDS011;15126;42.186;24.340;2023-02-15T13:49:56;16.90;;;14.10;;
27728;SDS011;15126;42.186;24.340;2023-02-15T13:52:42;25.57;;;16.03;;
27728;SDS011;15126;42.186;24.340;2023-02-15T13:58:13;19.63;;;16.20;;
27728;SDS011;15126;42.186;24.340;2023-02-15T14:00:50;18.13;;;16.20;;
27728;SDS011;15126;42.186;24.340;2023-02-15T14:03:40;19.37;;;17.27;;
27728;SDS011;15126;42.186;24.340;2023-02-15T14:06:23;16.27;;;14.50;;
27728;SDS011;15126;42.186;24.340;2023-02-15T14:09:04;17.10;;;15.43;;
27728;SDS011;15126;42.186;24.340;2023-02-15T14:11:43;14.93;;;13.37;;
27728;SDS011;15126;42.186;24.340;2023-02-15T14:14:19;15.50;;;14.07;;
27728;SDS011;15126;42.186;24.340;2023-02-15T14:16:59;18.37;;;14.67;;
27728;SDS011;15126;42.186;24.340;2023-02-15T14:19:34;15.87;;;14.27;;
27728;SDS011;15126;42.186;24.340;2023-02-15T14:22:07;16.57;;;13.17;;
27728;SDS011;15126;42.186;24.340;2023-02-15T14:24:46;16.57;;;14.83;;
27728;SDS011;15126;42.186;24.340;2023-02-15T14:27:27;51.73;;;42.83;;
27728;SDS011;15126;42.186;24.340;2023-02-15T14:30:12;24.80;;;22.20;;
27728;SDS011;15126;42.186;24.340;2023-02-15T14:32:44;18.93;;;16.70;;
27728;SDS011;15126;42.186;24.340;2023-02-15T14:35:15;29.53;;;25.53;;
27728;SDS011;15126;42.186;24.340;2023-02-15T14:37:46;15.73;;;14.10;;
27728;SDS011;15126;42.186;24.340;2023-02-15T14:40:33;54.30;;;42.33;;
27728;SDS011;15126;42.186;24.340;2023-02-15T14:43:25;18.83;;;16.67;;
27728;SDS011;15126;42.186;24.340;2023-02-15T14:46:03;21.90;;;18.97;;
27728;SDS011;15126;42.186;24.340;2023-02-15T14:48:38;48.27;;;37.73;;
27728;SDS011;15126;42.186;24.340;2023-02-15T14:51:19;35.43;;;26.23;;
27728;SDS011;15126;42.186;24.340;2023-02-15T14:57:26;24.03;;;21.37;;
27728;SDS011;15126;42.186;24.340;2023-02-15T14:59:59;44.73;;;33.77;;
27728;SDS011;15126;42.186;24.340;2023-02-15T15:02:40;27.73;;;24.73;;